.
WxDataArchive / Data Records for 2009-09-24
2009-09-23 September 2009 2009-09-25

Data Records for Thursday, 24 September 2009

Time	Temp	Chill	HIndex	Humid	Dewpt	 Wind 	HiWind	WindDir	Rain 	Barom 
-----	----	-----	------	-----	-----	------	------	-------	-----	----- 
00:00	66.4	66.4	66.4	91	63.7	0	0	---	0.00	30.144 
00:05	66.3	66.3	66.3	91	63.6	0	0	---	0.00	30.144 
00:10	66.3	66.3	66.3	92	63.9	0	0	---	0.00	30.144 
00:15	66.1	66.1	66.1	92	63.7	0	0	---	0.00	30.146 
00:20	66.1	66.1	66.1	92	63.7	0	0	---	0.00	30.146 
00:25	66.1	66.1	66.1	92	63.7	0	0	---	0.00	30.146 
00:30	66.1	66.1	66.1	92	63.7	0	0	---	0.00	30.144 
00:35	66.0	66.0	66.0	92	63.6	0	0	---	0.00	30.144 
00:40	66.0	66.0	66.0	92	63.6	0	0	---	0.00	30.144 
00:45	66.0	66.0	66.0	92	63.6	0	0	---	0.00	30.147 
00:50	66.0	66.0	66.0	92	63.6	0	0	---	0.00	30.147 
00:55	66.0	66.0	66.0	92	63.6	0	0	---	0.00	30.147 
01:00	65.8	65.8	65.8	92	63.4	0	0	---	0.00	30.148 
01:05	65.8	65.8	65.8	92	63.4	0	0	---	0.00	30.148 
01:10	65.8	65.8	65.8	93	63.7	0	0	---	0.00	30.148 
01:15	65.8	65.8	65.8	93	63.7	0	0	---	0.00	30.155 
01:20	65.8	65.8	65.8	93	63.7	0	0	---	0.00	30.155 
01:25	65.6	65.6	65.6	93	63.5	0	0	---	0.00	30.155 
01:30	65.6	65.6	65.6	93	63.5	0	0	---	0.00	30.157 
01:35	65.6	65.6	65.6	93	63.5	0	0	---	0.00	30.157 
01:40	65.5	65.5	65.5	93	63.4	0	0	---	0.00	30.157 
01:45	65.5	65.5	65.5	93	63.4	0	0	---	0.00	30.157 
01:50	65.5	65.5	65.5	93	63.4	0	0	---	0.00	30.157 
01:55	65.3	65.3	65.3	93	63.2	0	0	---	0.00	30.157 
02:00	65.3	65.3	65.3	93	63.2	0	0	---	0.00	30.160 
02:05	65.3	65.3	65.3	93	63.2	0	0	---	0.00	30.160 
02:10	65.2	65.2	65.2	93	63.1	0	0	---	0.00	30.160 
02:15	65.2	65.2	65.2	93	63.1	0	0	---	0.00	30.162 
02:20	65.0	65.0	65.0	93	62.9	0	0	---	0.00	30.162 
02:25	65.0	65.0	65.0	93	62.9	0	0	---	0.00	30.162 
02:30	65.0	65.0	65.0	93	62.9	0	0	---	0.00	30.164 
02:35	65.0	65.0	65.0	94	63.2	0	0	---	0.00	30.164 
02:40	64.8	64.8	64.8	94	63.0	0	0	---	0.00	30.164 
02:45	64.7	64.7	64.7	94	62.9	0	0	---	0.00	30.160 
02:50	64.5	64.5	64.5	94	62.7	0	0	---	0.00	30.160 
02:55	64.3	64.3	64.3	94	62.5	0	0	---	0.00	30.160 
03:00	64.2	64.2	64.2	94	62.4	0	0	---	0.00	30.157 
03:05	64.2	64.2	64.2	94	62.4	0	0	---	0.00	30.157 
03:10	64.0	64.0	64.0	94	62.2	0	0	---	0.00	30.157 
03:15	63.9	63.9	63.9	94	62.1	0	0	---	0.00	30.161 
03:20	63.9	63.9	63.9	94	62.1	0	0	---	0.00	30.161 
03:25	63.7	63.7	63.7	94	61.9	0	0	---	0.00	30.161 
03:30	63.7	63.7	63.7	94	61.9	0	0	---	0.00	30.151 
03:35	63.5	63.5	63.5	94	61.7	0	0	---	0.00	30.151 
03:40	63.5	63.5	63.5	94	61.7	0	0	---	0.00	30.151 
03:45	63.4	63.4	63.4	94	61.6	0	0	---	0.00	30.146 
03:50	63.4	63.4	63.4	94	61.6	0	0	---	0.00	30.146 
03:55	63.4	63.4	63.4	95	61.9	0	0	---	0.00	30.146 
04:00	63.2	63.2	63.2	95	61.7	0	0	---	0.00	30.148 
04:05	63.2	63.2	63.2	95	61.7	0	0	---	0.00	30.148 
04:10	63.4	63.4	63.4	95	61.9	0	0	---	0.00	30.148 
04:15	63.4	63.4	63.4	95	61.9	0	0	---	0.00	30.145 
04:20	63.4	63.4	63.4	95	61.9	0	0	---	0.00	30.145 
04:25	63.4	63.4	63.4	95	61.9	0	0	---	0.00	30.145 
04:30	63.4	63.4	63.4	95	61.9	0	0	---	0.00	30.151 
04:35	63.4	63.4	63.4	95	61.9	0	0	---	0.00	30.151 
04:40	63.4	63.4	63.4	95	61.9	0	0	---	0.00	30.151 
04:45	63.4	63.4	63.4	95	61.9	0	0	---	0.00	30.149 
04:50	63.4	63.4	63.4	95	61.9	0	0	---	0.00	30.149 
04:55	63.4	63.4	63.4	95	61.9	0	0	---	0.00	30.149 
05:00	63.5	63.5	63.5	96	62.3	0	0	---	0.00	30.151 
05:05	63.5	63.5	63.5	96	62.3	0	0	---	0.00	30.151 
05:10	63.5	63.5	63.5	96	62.3	0	0	---	0.00	30.151 
05:15	63.4	63.4	63.4	96	62.2	0	0	---	0.00	30.155 
05:20	63.4	63.4	63.4	96	62.2	0	0	---	0.00	30.155 
05:25	63.4	63.4	63.4	96	62.2	0	0	---	0.00	30.155 
05:30	63.4	63.4	63.4	96	62.2	0	0	---	0.00	30.157 
05:35	63.4	63.4	63.4	96	62.2	0	0	---	0.00	30.157 
05:40	63.2	63.2	63.2	96	62.0	0	0	---	0.00	30.157 
05:45	63.2	63.2	63.2	96	62.0	0	0	---	0.00	30.151 
05:50	63.2	63.2	63.2	96	62.0	0	0	---	0.00	30.151 
05:55	63.2	63.2	63.2	96	62.0	0	0	---	0.00	30.151 
06:00	63.2	63.2	63.2	96	62.0	0	0	---	0.00	30.147 
06:05	63.1	63.1	63.1	96	61.9	0	0	---	0.00	30.147 
06:10	63.1	63.1	63.1	96	61.9	0	0	---	0.00	30.147 
06:15	63.1	63.1	63.1	96	61.9	0	0	---	0.00	30.148 
06:20	62.9	62.9	62.9	96	61.7	0	0	---	0.00	30.148 
06:25	62.9	62.9	62.9	96	61.7	0	1	292	0.00	30.148 
06:30	62.9	62.9	62.9	96	61.7	0	0	---	0.00	30.144 
06:35	62.9	62.9	62.9	96	61.7	0	0	---	0.00	30.144 
06:40	62.9	62.9	62.9	96	61.7	0	0	---	0.00	30.144 
06:45	62.7	62.7	62.7	96	61.5	0	0	---	0.00	30.149 
06:50	62.9	62.9	62.9	96	61.7	0	0	---	0.00	30.149 
06:55	62.7	62.7	62.7	96	61.5	0	0	---	0.00	30.149 
07:00	62.7	62.7	62.7	96	61.5	0	0	---	0.00	30.157 
07:05	62.9	62.9	62.9	96	61.7	0	0	---	0.00	30.157 
07:10	62.7	62.7	62.7	96	61.5	0	0	---	0.00	30.157 
07:15	62.7	62.7	62.7	96	61.5	0	0	---	0.00	30.148 
07:20	62.7	62.7	62.7	96	61.5	0	0	---	0.00	30.148 
07:25	62.7	62.7	62.7	96	61.5	0	0	---	0.00	30.148 
07:30	62.7	62.7	62.7	96	61.5	0	0	---	0.00	30.155 
07:35	62.7	62.7	62.7	96	61.5	0	0	---	0.00	30.155 
07:40	62.7	62.7	62.7	96	61.5	0	0	---	0.00	30.155 
07:45	62.7	62.7	62.7	96	61.5	0	0	---	0.00	30.154 
07:50	62.7	62.7	62.7	96	61.5	0	0	---	0.00	30.154 
07:55	62.7	62.7	62.7	96	61.5	0	0	---	0.00	30.154 
08:00	62.9	62.9	62.9	96	61.7	0	0	---	0.00	30.162 
08:05	62.9	62.9	62.9	96	61.7	0	0	---	0.00	30.162 
08:10	63.1	63.1	63.1	96	61.9	0	1	292	0.00	30.162 
08:15	63.1	63.1	63.1	96	61.9	0	0	---	0.00	30.167 
08:20	63.2	63.2	63.2	96	62.0	0	0	---	0.00	30.167 
08:25	63.2	63.2	63.2	96	62.0	0	0	---	0.00	30.167 
08:30	63.4	63.4	63.4	96	62.2	0	1	225	0.00	30.169 
08:35	63.4	63.4	63.4	96	62.2	0	1	225	0.00	30.169 
08:40	63.4	63.4	63.4	96	62.2	0	1	225	0.00	30.169 
08:45	63.4	63.4	63.4	96	62.2	0	2	202	0.00	30.166 
08:50	63.5	63.5	63.5	96	62.3	0	3	90	0.00	30.166 
08:55	63.5	63.5	63.5	96	62.3	0	2	90	0.00	30.166 
09:00	63.5	63.5	63.5	96	62.3	0	0	---	0.00	30.166 
09:05	63.7	63.7	63.7	96	62.5	0	1	90	0.00	30.166 
09:10	63.7	63.7	63.7	96	62.5	0	1	90	0.00	30.166 
09:15	63.9	63.9	63.9	96	62.7	0	3	112	0.00	30.178 
09:20	63.9	63.9	63.9	96	62.7	0	1	112	0.00	30.178 
09:25	64.0	64.0	64.0	96	62.8	0	3	112	0.00	30.178 
09:30	64.2	64.2	64.2	96	63.0	0	2	112	0.00	30.186 
09:35	64.3	64.3	64.3	96	63.1	0	3	112	0.00	30.186 
09:40	64.5	64.5	64.5	95	63.0	1	3	90	0.00	30.186 
09:45	65.0	65.0	65.0	95	63.5	0	2	90	0.00	30.184 
09:50	65.3	65.3	65.3	94	63.5	0	2	90	0.00	30.184 
09:55	65.5	65.5	65.5	93	63.4	0	2	90	0.00	30.184 
10:00	65.5	65.5	65.5	92	63.1	1	3	90	0.00	30.186 
10:05	65.6	65.6	65.6	92	63.2	1	3	90	0.00	30.186 
10:10	65.8	65.8	65.8	92	63.4	0	3	90	0.00	30.186 
10:15	66.1	66.1	66.1	91	63.4	1	3	112	0.00	30.196 
10:20	66.3	66.3	66.3	90	63.3	1	5	90	0.00	30.196 
10:25	66.6	66.6	66.6	90	63.6	1	2	112	0.00	30.196 
10:30	66.6	66.6	66.6	89	63.3	1	4	112	0.00	30.196 
10:35	66.8	66.8	66.8	88	63.1	1	4	90	0.00	30.196 
10:40	67.1	67.1	67.1	88	63.4	1	4	90	0.00	30.196 
10:45	67.1	67.1	67.1	88	63.4	2	5	90	0.00	30.197 
10:50	67.3	67.3	67.3	88	63.6	1	3	112	0.00	30.197 
10:55	67.4	67.4	67.4	88	63.7	1	3	68	0.00	30.197 
11:00	67.6	67.6	67.6	88	63.9	1	3	68	0.00	30.199 
11:05	67.6	67.6	67.6	88	63.9	1	4	90	0.00	30.199 
11:10	67.6	67.6	67.6	88	63.9	1	5	112	0.00	30.199 
11:15	67.8	67.8	67.8	88	64.1	0	2	112	0.00	30.196 
11:20	67.8	67.8	67.8	88	64.1	1	3	90	0.00	30.196 
11:25	67.8	67.8	67.8	87	63.8	1	3	90	0.00	30.196 
11:30	67.9	67.9	67.9	88	64.2	0	1	90	0.00	30.195 
11:35	67.9	67.9	67.9	88	64.2	1	4	90	0.00	30.195 
11:40	68.1	68.1	68.1	88	64.4	0	3	90	0.00	30.195 
11:45	68.1	68.1	68.1	87	64.1	1	2	90	0.00	30.196 
11:50	68.1	68.1	68.1	87	64.1	0	2	90	0.00	30.196 
11:55	68.1	68.1	68.1	87	64.1	0	2	90	0.00	30.196 
12:00	68.1	68.1	68.1	87	64.1	1	2	90	0.00	30.195 
12:05	68.1	68.1	68.1	87	64.1	0	3	90	0.00	30.195 
12:10	68.3	68.3	68.3	88	64.6	0	2	90	0.00	30.195 
12:15	68.4	68.4	68.4	87	64.4	0	1	90	0.00	30.190 
12:20	68.4	68.4	68.4	87	64.4	0	2	90	0.00	30.190 
12:25	68.6	68.6	68.6	87	64.6	0	2	90	0.00	30.190 
12:30	68.6	68.6	68.6	87	64.6	0	3	112	0.00	30.180 
12:35	68.8	68.8	68.8	88	65.1	1	3	112	0.00	30.180 
12:40	68.8	68.8	68.8	88	65.1	1	3	112	0.00	30.180 
12:45	68.9	68.9	68.9	88	65.2	1	3	45	0.00	30.176 
12:50	68.9	68.9	68.9	88	65.2	1	3	90	0.00	30.176 
12:55	69.1	69.1	69.1	88	65.4	1	3	90	0.00	30.176 
13:00	69.3	69.3	69.3	88	65.6	1	4	90	0.00	30.167 
13:05	69.3	69.3	69.3	88	65.6	2	5	112	0.00	30.167 
13:10	69.4	69.4	69.4	88	65.7	1	5	90	0.00	30.167 
13:15	69.1	69.1	69.1	87	65.1	3	7	90	0.00	30.156 
13:20	69.1	69.1	69.1	88	65.4	2	6	90	0.00	30.156 
13:25	69.3	69.3	69.3	87	65.3	1	5	90	0.00	30.156 
13:30	69.3	69.3	69.3	87	65.3	1	3	90	0.00	30.163 
13:35	69.3	69.3	69.3	86	64.9	2	5	90	0.00	30.163 
13:40	69.4	69.4	69.4	86	65.0	1	5	90	0.00	30.163 
13:45	69.4	69.4	69.4	86	65.0	1	3	112	0.00	30.163 
13:50	69.8	69.8	69.8	86	65.4	0	1	112	0.00	30.163 
13:55	69.9	69.9	69.9	85	65.2	0	2	112	0.00	30.163 
14:00	70.1	70.1	70.1	84	65.0	1	3	112	0.00	30.159 
14:05	70.3	70.3	70.3	84	65.2	1	3	112	0.00	30.159 
14:10	70.3	70.3	70.3	81	64.2	2	3	112	0.00	30.159 
14:15	70.3	70.3	70.3	80	63.8	2	4	90	0.00	30.151 
14:20	70.4	70.4	70.4	80	63.9	1	4	90	0.00	30.151 
14:25	70.8	70.8	70.8	80	64.3	1	3	90	0.00	30.151 
14:30	70.8	70.8	70.8	80	64.3	1	4	112	0.00	30.150 
14:35	70.8	70.8	70.8	81	64.7	1	5	112	0.00	30.150 
14:40	70.6	70.6	70.6	80	64.1	0	3	112	0.00	30.150 
14:45	70.6	70.6	70.6	80	64.1	0	3	112	0.00	30.152 
14:50	70.4	70.4	70.4	78	63.2	1	4	112	0.00	30.152 
14:55	70.4	70.4	70.4	80	63.9	1	4	112	0.00	30.152 
15:00	70.4	70.4	70.4	79	63.6	1	2	112	0.00	30.148 
15:05	70.6	70.6	70.6	80	64.1	0	2	112	0.00	30.148 
15:10	70.6	70.6	70.6	80	64.1	0	1	112	0.00	30.148 
15:15	70.6	70.6	70.6	78	63.4	1	3	112	0.00	30.146 
15:20	70.8	70.8	70.8	79	64.0	1	4	112	0.00	30.146 
15:25	70.8	70.8	70.8	78	63.6	1	5	112	0.00	30.146 
15:30	70.8	70.8	70.8	78	63.6	1	3	112	0.00	30.144 
15:35	70.9	70.9	70.9	78	63.7	0	1	112	0.00	30.144 
15:40	70.9	70.9	70.9	77	63.3	1	3	112	0.00	30.144 
15:45	70.9	70.9	70.9	77	63.3	1	4	90	0.00	30.148 
15:50	70.9	70.9	70.9	77	63.3	0	2	90	0.00	30.148 
15:55	70.9	70.9	70.9	76	62.9	0	1	90	0.00	30.148 
16:00	70.9	70.9	70.9	76	62.9	0	2	90	0.00	30.147 
16:05	71.1	71.1	71.1	74	62.4	0	1	90	0.00	30.147 
16:10	70.9	70.9	70.9	73	61.8	1	3	112	0.00	30.147 
16:15	71.1	71.1	71.1	74	62.4	0	1	112	0.00	30.146 
16:20	71.3	71.3	71.3	75	63.0	0	0	---	0.00	30.146 
16:25	71.3	71.3	71.3	73	62.2	0	2	112	0.00	30.146 
16:30	71.3	71.3	71.3	74	62.6	0	2	112	0.00	30.136 
16:35	71.3	71.3	71.3	73	62.2	0	5	112	0.00	30.136 
16:40	71.3	71.3	71.3	75	63.0	0	1	112	0.00	30.136 
16:45	71.3	71.3	71.3	74	62.6	0	2	112	0.00	30.143 
16:50	71.1	71.1	71.1	73	62.0	0	2	112	0.00	30.143 
16:55	71.1	71.1	71.1	74	62.4	0	1	112	0.00	30.143 
17:00	71.1	71.1	71.1	75	62.8	0	1	112	0.00	30.143 
17:05	71.1	71.1	71.1	72	61.6	0	1	112	0.00	30.143 
17:10	70.9	70.9	70.9	72	61.4	0	1	112	0.00	30.143 
17:15	70.9	70.9	70.9	74	62.2	0	1	112	0.00	30.135 
17:20	70.9	70.9	70.9	74	62.2	0	1	112	0.00	30.135 
17:25	70.9	70.9	70.9	76	62.9	0	1	112	0.00	30.135 
17:30	70.8	70.8	70.8	75	62.5	0	0	---	0.00	30.138 
17:35	70.6	70.6	70.6	74	61.9	0	0	---	0.00	30.138 
17:40	70.6	70.6	70.6	75	62.3	0	0	---	0.00	30.138 
17:45	70.4	70.4	70.4	75	62.1	0	0	---	0.00	30.137 
17:50	70.4	70.4	70.4	75	62.1	0	0	---	0.00	30.137 
17:55	70.4	70.4	70.4	77	62.8	0	0	---	0.00	30.137 
18:00	70.4	70.4	70.4	77	62.8	0	0	---	0.00	30.136 
18:05	70.3	70.3	70.3	77	62.7	0	1	112	0.00	30.136 
18:10	70.3	70.3	70.3	77	62.7	0	0	---	0.00	30.136 
18:15	70.1	70.1	70.1	77	62.5	0	0	---	0.00	30.136 
18:20	69.9	69.9	69.9	78	62.7	0	0	---	0.00	30.136 
18:25	69.8	69.8	69.8	78	62.6	0	0	---	0.00	30.136 
18:30	69.8	69.8	69.8	79	63.0	0	0	---	0.00	30.138 
18:35	69.6	69.6	69.6	79	62.8	0	0	---	0.00	30.138 
18:40	69.4	69.4	69.4	79	62.6	0	1	112	0.00	30.138 
18:45	69.3	69.3	69.3	79	62.5	0	0	---	0.00	30.138 
18:50	69.3	69.3	69.3	79	62.5	0	0	---	0.00	30.138 
18:55	69.1	69.1	69.1	79	62.3	0	0	---	0.00	30.138 
19:00	68.9	68.9	68.9	79	62.1	0	1	112	0.00	30.137 
19:05	68.8	68.8	68.8	79	62.0	0	1	112	0.00	30.137 
19:10	68.6	68.6	68.6	79	61.8	0	1	112	0.00	30.137 
19:15	68.6	68.6	68.6	80	62.2	0	0	---	0.00	30.140 
19:20	68.4	68.4	68.4	80	62.0	0	2	112	0.00	30.140 
19:25	68.3	68.3	68.3	80	61.9	0	1	112	0.00	30.140 
19:30	68.3	68.3	68.3	80	61.9	0	1	112	0.00	30.143 
19:35	68.1	68.1	68.1	80	61.7	0	1	112	0.00	30.143 
19:40	68.1	68.1	68.1	80	61.7	0	1	112	0.00	30.143 
19:45	67.9	67.9	67.9	80	61.5	0	2	112	0.00	30.147 
19:50	67.9	67.9	67.9	80	61.5	0	3	90	0.00	30.147 
19:55	67.8	67.8	67.8	80	61.4	0	0	---	0.00	30.147 
20:00	67.8	67.8	67.8	80	61.4	0	0	---	0.00	30.146 
20:05	67.6	67.6	67.6	80	61.2	0	0	---	0.00	30.146 
20:10	67.4	67.4	67.4	80	61.0	0	0	---	0.00	30.146 
20:15	67.4	67.4	67.4	80	61.0	0	0	---	0.00	30.147 
20:20	67.3	67.3	67.3	80	60.9	0	0	---	0.00	30.147 
20:25	67.1	67.1	67.1	80	60.7	0	0	---	0.00	30.147 
20:30	66.9	66.9	66.9	79	60.2	0	1	90	0.00	30.147 
20:35	66.9	66.9	66.9	79	60.2	0	1	90	0.00	30.147 
20:40	66.8	66.8	66.8	78	59.7	0	1	90	0.00	30.147 
20:45	66.8	66.8	66.8	77	59.3	0	1	90	0.00	30.152 
20:50	66.8	66.8	66.8	76	59.0	0	1	90	0.00	30.152 
20:55	66.8	66.8	66.8	75	58.6	0	3	90	0.00	30.152 
21:00	66.8	66.8	66.8	74	58.2	0	2	90	0.00	30.153 
21:05	66.8	66.8	66.8	73	57.9	0	1	90	0.00	30.153 
21:10	66.8	66.8	66.8	72	57.5	0	1	90	0.00	30.153 
21:15	66.8	66.8	66.8	73	57.9	0	0	---	0.00	30.162 
21:20	66.8	66.8	66.8	73	57.9	0	0	---	0.00	30.162 
21:25	66.6	66.6	66.6	72	57.3	0	0	---	0.00	30.162 
21:30	66.4	66.4	66.4	72	57.1	0	0	---	0.00	30.167 
21:35	66.3	66.3	66.3	72	57.0	0	0	---	0.00	30.167 
21:40	66.1	66.1	66.1	72	56.8	0	0	---	0.00	30.167 
21:45	66.0	66.0	66.0	72	56.7	0	0	---	0.00	30.171 
21:50	65.8	65.8	65.8	73	56.9	0	0	---	0.00	30.171 
21:55	65.6	65.6	65.6	75	57.5	0	0	---	0.00	30.171 
22:00	65.5	65.5	65.5	75	57.4	0	0	---	0.00	30.173 
22:05	65.3	65.3	65.3	76	57.5	0	0	---	0.00	30.173 
22:10	65.2	65.2	65.2	77	57.8	0	0	---	0.00	30.173 
22:15	65.0	65.0	65.0	77	57.6	0	0	---	0.00	30.172 
22:20	64.8	64.8	64.8	78	57.8	0	0	---	0.00	30.172 
22:25	64.8	64.8	64.8	80	58.5	0	3	90	0.00	30.172 
22:30	64.8	64.8	64.8	79	58.1	0	4	90	0.00	30.169 
22:35	65.0	65.0	65.0	78	58.0	0	1	112	0.00	30.169 
22:40	65.2	65.2	65.2	77	57.8	0	2	112	0.00	30.169 
22:45	65.3	65.3	65.3	76	57.5	0	3	112	0.00	30.175 
22:50	65.3	65.3	65.3	75	57.2	0	3	112	0.00	30.175 
22:55	65.2	65.2	65.2	74	56.7	1	5	112	0.00	30.175 
23:00	65.3	65.3	65.3	73	56.4	1	3	112	0.00	30.176 
23:05	65.3	65.3	65.3	72	56.0	1	3	45	0.00	30.176 
23:10	65.3	65.3	65.3	71	55.6	1	3	90	0.00	30.176 
23:15	65.3	65.3	65.3	71	55.6	1	2	90	0.00	30.170 
23:20	65.2	65.2	65.2	71	55.6	1	3	90	0.00	30.170 
23:25	65.2	65.2	65.2	71	55.6	1	3	90	0.00	30.170 
23:30	65.0	65.0	65.0	71	55.4	1	4	90	0.00	30.176 
23:35	65.0	65.0	65.0	71	55.4	1	3	68	0.00	30.176 
23:40	65.0	65.0	65.0	71	55.4	1	2	90	0.00	30.176 
23:45	64.8	64.8	64.8	72	55.6	0	3	90	0.00	30.177 
23:50	64.7	64.7	64.7	72	55.5	1	3	90	0.00	30.177 
23:55	64.7	64.7	64.7	72	55.5	0	2	90	0.00	30.177 

CoCoRaHS
IN-AL-39
A2 Web Hosting
Creative Commons License
GoDaddy
search engine by freefind advanced

loaded 2018-11-15 05:08:28 • last modified 2010-11-18 10:43:29
Privacy PolicyDisclaimer
• wx.awcolley.com is powered by PmWiki v.2002016 •
• all content (unless otherwise noted) © 2018 A W Colley